Time;durP1;ratioP1;P1;durP2;ratioP2;P2;SDS_P1;SDS_P2;PMS_P1;PMS_P2;Temp;Humidity;BMP_temperature;BMP_pressure;BME280_temperature;BME280_humidity;BME280_pressure;Samples;Min_cycle;Max_cycle;Signal;HPM_P1;HPM_P2
2022/03/22 00:00:50;;;;;;;78.47;37.00;;;1.50;65.90;;;;;;5054637;28;20025;-71
2022/03/22 00:03:16;;;;;;;98.85;42.72;;;1.50;66.00;;;;;;5054601;28;20060;-73
2022/03/22 00:05:44;;;;;;;113.70;49.05;;;1.40;65.90;;;;;;5054362;28;20471;-71
2022/03/22 00:08:11;;;;;;;129.23;52.65;;;1.50;66.10;;;;;;5054435;28;20021;-71
2022/03/22 00:10:38;;;;;;;104.03;44.22;;;1.50;65.90;;;;;;5054245;28;20025;-70
2022/03/22 00:13:05;;;;;;;100.70;47.90;;;1.40;65.70;;;;;;5054175;28;20098;-72
2022/03/22 00:15:34;;;;;;;101.85;48.08;;;1.50;65.70;;;;;;5054325;28;20033;-71
2022/03/22 00:18:00;;;;;;;102.68;48.97;;;1.50;66.00;;;;;;5054437;28;20025;-72
2022/03/22 00:20:27;;;;;;;105.07;44.85;;;1.50;66.00;;;;;;5053853;28;20025;-74
2022/03/22 00:22:54;;;;;;;105.38;45.08;;;1.50;66.10;;;;;;5054205;28;20029;-72
2022/03/22 00:25:20;;;;;;;106.72;45.08;;;1.40;65.70;;;;;;5053494;28;20021;-72
2022/03/22 00:27:57;;;;;;;96.03;42.95;;;1.40;65.90;;;;;;5052516;28;20063;-71
2022/03/22 00:30:28;;;;;;;93.47;43.88;;;1.40;67.10;;;;;;5050533;28;20048;-71
2022/03/22 00:32:57;;;;;;;95.30;44.13;;;1.40;66.30;;;;;;5052470;28;20025;-70
2022/03/22 00:35:27;;;;;;;105.65;47.42;;;1.30;66.40;;;;;;5053008;28;20266;-72
2022/03/22 00:37:56;;;;;;;110.90;50.55;;;1.30;66.40;;;;;;5052385;28;20017;-73
2022/03/22 00:40:25;;;;;;;122.65;51.33;;;1.30;66.60;;;;;;5052056;28;20061;-72
2022/03/22 00:42:53;;;;;;;135.27;58.95;;;1.30;67.10;;;;;;5052599;28;20104;-72
2022/03/22 00:45:22;;;;;;;151.05;62.88;;;1.30;67.00;;;;;;5050536;28;20834;-71
2022/03/22 00:47:50;;;;;;;128.27;55.60;;;1.20;67.10;;;;;;5052345;28;20029;-73
2022/03/22 00:50:19;;;;;;;126.60;54.17;;;1.30;67.70;;;;;;5052095;28;20029;-73
2022/03/22 00:52:45;;;;;;;121.40;53.08;;;1.20;67.60;;;;;;5052143;28;20021;-73
2022/03/22 00:55:12;;;;;;;127.22;54.47;;;1.20;67.40;;;;;;5052167;28;20091;-73
2022/03/22 00:57:39;;;;;;;119.53;51.83;;;1.20;67.50;;;;;;5049939;28;20024;-73
2022/03/22 01:00:09;;;;;;;114.43;46.92;;;1.20;67.90;;;;;;5052396;28;20025;-72
2022/03/22 01:02:37;;;;;;;99.22;43.88;;;1.20;68.00;;;;;;5051836;28;20031;-72
2022/03/22 01:05:11;;;;;;;93.95;43.30;;;1.10;67.90;;;;;;5051935;28;20025;-72
2022/03/22 01:07:37;;;;;;;96.85;40.60;;;1.10;68.20;;;;;;5050142;28;20108;-70
2022/03/22 01:10:06;;;;;;;101.88;44.05;;;1.10;68.50;;;;;;5052068;28;20017;-71
2022/03/22 01:12:43;;;;;;;97.07;42.85;;;1.10;68.60;;;;;;5052141;28;20016;-71
2022/03/22 01:15:15;;;;;;;107.93;44.65;;;1.10;68.70;;;;;;5051409;28;20368;-70
2022/03/22 01:17:41;;;;;;;99.65;43.10;;;1.10;68.50;;;;;;5052085;28;20375;-72
2022/03/22 01:20:10;;;;;;;118.47;46.95;;;1.00;68.40;;;;;;5052030;28;20033;-73
2022/03/22 01:22:41;;;;;;;119.00;48.45;;;1.00;68.80;;;;;;5051851;28;20033;-73
2022/03/22 01:25:09;;;;;;;112.72;49.03;;;1.00;68.80;;;;;;5052081;28;20025;-72
2022/03/22 01:27:36;;;;;;;109.50;47.72;;;0.90;69.20;;;;;;5049842;28;20048;-72
2022/03/22 01:30:05;;;;;;;114.82;47.75;;;0.90;69.20;;;;;;5051561;28;20025;-69
2022/03/22 01:32:31;;;;;;;114.93;48.30;;;0.90;69.30;;;;;;5052254;28;20033;-72
2022/03/22 01:34:57;;;;;;;103.22;47.05;;;0.90;69.00;;;;;;5051933;28;20021;-71
2022/03/22 01:37:23;;;;;;;94.07;44.58;;;0.90;69.30;;;;;;5051601;28;20032;-73
2022/03/22 01:39:49;;;;;;;103.20;46.45;;;0.90;69.40;;;;;;5054655;28;20017;-70
2022/03/22 01:42:14;;;;;;;101.60;47.13;;;0.90;69.90;;;;;;5056013;28;20025;-72
2022/03/22 01:44:40;;;;;;;105.40;49.33;;;0.90;69.60;;;;;;5055802;28;20159;-71
2022/03/22 01:47:06;;;;;;;132.63;52.45;;;0.80;69.60;;;;;;5055766;28;20452;-71
2022/03/22 01:49:33;;;;;;;98.55;47.50;;;0.80;69.70;;;;;;5055877;28;20025;-72
2022/03/22 01:52:01;;;;;;;100.53;46.63;;;0.80;70.10;;;;;;5054576;28;20483;-70
2022/03/22 01:54:26;;;;;;;106.25;44.78;;;0.70;70.20;;;;;;5055540;28;20044;-72
2022/03/22 01:56:52;;;;;;;101.82;45.60;;;0.70;70.30;;;;;;5055369;28;20033;-71
2022/03/22 01:59:18;;;;;;;101.90;44.58;;;0.70;70.50;;;;;;5055392;28;20056;-70
2022/03/22 02:07:15;;;;;;;93.90;43.08;;;0.60;71.30;;;;;;5052833;28;20029;-71
2022/03/22 02:09:41;;;;;;;90.15;43.53;;;0.50;71.20;;;;;;5055253;28;20016;-70
2022/03/22 02:12:09;;;;;;;94.60;43.20;;;0.50;71.40;;;;;;5055200;28;20078;-70
2022/03/22 02:14:35;;;;;;;95.88;45.08;;;0.50;71.40;;;;;;5052831;28;20033;-71
2022/03/22 02:17:10;;;;;;;97.55;45.00;;;0.50;71.80;;;;;;5055368;28;20028;-70
2022/03/22 02:19:38;;;;;;;101.90;45.85;;;0.50;72.00;;;;;;5052526;28;20078;-70
2022/03/22 02:22:09;;;;;;;103.20;47.42;;;0.50;72.20;;;;;;5055130;28;20053;-71
2022/03/22 02:24:36;;;;;;;110.78;49.05;;;0.50;72.10;;;;;;5052897;28;20763;-72
2022/03/22 02:27:02;;;;;;;100.43;47.67;;;0.50;72.50;;;;;;5055209;28;20025;-72
2022/03/22 02:29:28;;;;;;;102.50;47.90;;;0.50;72.70;;;;;;5056139;28;20371;-72
2022/03/22 02:31:54;;;;;;;95.82;46.08;;;0.50;72.70;;;;;;5056278;28;20083;-71
2022/03/22 02:34:19;;;;;;;98.82;46.25;;;0.50;73.00;;;;;;5056255;28;20428;-72
2022/03/22 02:36:46;;;;;;;93.22;44.70;;;0.50;73.00;;;;;;5056605;28;20029;-72
2022/03/22 02:39:12;;;;;;;107.22;43.85;;;0.50;73.30;;;;;;5056090;28;20077;-72
2022/03/22 02:41:38;;;;;;;98.00;44.72;;;0.50;73.60;;;;;;5056018;28;20025;-71
2022/03/22 02:44:04;;;;;;;100.20;45.05;;;0.50;74.00;;;;;;5055899;28;20430;-71
2022/03/22 02:46:30;;;;;;;104.55;45.58;;;0.50;74.00;;;;;;5055804;28;20059;-73
2022/03/22 02:48:56;;;;;;;101.85;47.70;;;0.40;74.10;;;;;;5056073;28;20052;-71
2022/03/22 02:51:21;;;;;;;109.82;47.78;;;0.40;74.70;;;;;;5055863;28;20025;-71
2022/03/22 02:53:47;;;;;;;93.43;42.72;;;0.40;74.70;;;;;;5055509;28;20135;-72
2022/03/22 02:56:13;;;;;;;99.07;41.45;;;0.40;74.60;;;;;;5055605;28;20029;-71
2022/03/22 02:58:39;;;;;;;92.85;41.17;;;0.40;75.00;;;;;;5056017;28;20102;-71
2022/03/22 03:01:05;;;;;;;87.07;39.58;;;0.40;75.40;;;;;;5055693;28;20053;-71
2022/03/22 03:03:32;;;;;;;87.53;39.78;;;0.30;75.70;;;;;;5055703;28;20065;-72
2022/03/22 03:05:59;;;;;;;93.65;39.78;;;0.40;75.70;;;;;;5055486;28;20476;-71
2022/03/22 03:08:26;;;;;;;87.75;37.97;;;0.30;76.20;;;;;;5055564;28;20112;-71
2022/03/22 03:10:53;;;;;;;86.95;39.63;;;0.40;76.40;;;;;;5055627;28;20029;-71
2022/03/22 03:13:19;;;;;;;87.93;39.88;;;0.30;76.70;;;;;;5055683;28;20028;-71
2022/03/22 03:15:46;;;;;;;90.10;40.88;;;0.30;77.10;;;;;;5055245;28;20025;-70
2022/03/22 03:18:13;;;;;;;90.18;40.53;;;0.30;77.80;;;;;;5055770;28;20033;-71
2022/03/22 03:20:39;;;;;;;86.20;39.38;;;0.30;78.40;;;;;;5055364;28;20029;-72
2022/03/22 03:23:05;;;;;;;85.75;37.40;;;0.30;78.80;;;;;;5055010;28;20021;-70
2022/03/22 03:25:31;;;;;;;79.88;38.60;;;0.30;78.60;;;;;;5055403;28;20031;-72
2022/03/22 03:27:57;;;;;;;81.78;37.65;;;0.30;78.80;;;;;;5054969;28;20483;-71
2022/03/22 03:30:23;;;;;;;81.80;36.05;;;0.30;78.90;;;;;;5055146;28;20057;-71
2022/03/22 03:32:49;;;;;;;88.07;38.75;;;0.20;79.50;;;;;;5055294;28;20029;-73
2022/03/22 03:35:14;;;;;;;88.55;37.13;;;0.20;80.50;;;;;;5055094;28;20037;-69
2022/03/22 03:37:44;;;;;;;74.85;34.72;;;0.20;81.30;;;;;;5055060;28;20442;-71
2022/03/22 03:40:10;;;;;;;81.47;35.50;;;0.10;81.70;;;;;;5054770;28;20376;-73
2022/03/22 03:42:43;;;;;;;80.85;35.38;;;0.10;83.10;;;;;;5054643;28;20032;-71
2022/03/22 03:47:58;;;;;;;73.80;33.65;;;0.10;84.00;;;;;;5054801;28;20032;-73
2022/03/22 03:50:25;;;;;;;81.30;35.95;;;0.10;85.40;;;;;;5054788;28;20025;-71
2022/03/22 03:52:50;;;;;;;85.78;35.17;;;0.00;86.70;;;;;;5053570;28;20415;-73
2022/03/22 03:55:16;;;;;;;83.55;36.30;;;0.00;88.10;;;;;;5054579;28;20086;-71
2022/03/22 03:57:44;;;;;;;90.40;41.92;;;0.00;88.80;;;;;;5054675;28;20029;-72
2022/03/22 04:00:10;;;;;;;93.85;41.78;;;0.00;90.30;;;;;;5054663;28;20071;-70
2022/03/22 04:02:36;;;;;;;95.20;40.55;;;-0.10;91.30;;;;;;5054305;28;20060;-73
2022/03/22 04:05:02;;;;;;;87.25;39.45;;;-0.10;91.60;;;;;;5053239;28;20095;-70
2022/03/22 04:07:28;;;;;;;82.75;36.95;;;-0.10;91.90;;;;;;5054582;28;20504;-71
2022/03/22 04:09:54;;;;;;;82.15;36.13;;;-0.10;92.30;;;;;;5054109;28;20112;-70
2022/03/22 04:12:22;;;;;;;77.00;36.67;;;-0.10;92.50;;;;;;5054262;28;20029;-73
2022/03/22 04:14:50;;;;;;;85.35;37.10;;;-0.10;93.00;;;;;;5054081;28;20029;-69
2022/03/22 04:17:17;;;;;;;80.88;32.85;;;-0.10;94.00;;;;;;5054574;28;20452;-71
2022/03/22 04:19:43;;;;;;;64.28;31.15;;;-0.20;94.80;;;;;;5054407;28;20029;-69
2022/03/22 04:22:09;;;;;;;69.28;32.15;;;-0.30;95.90;;;;;;5054544;28;20036;-69
2022/03/22 04:24:35;;;;;;;68.30;30.95;;;-0.30;98.30;;;;;;5054198;28;20498;-69
2022/03/22 04:32:50;;;;;;;68.13;30.58;;;-0.30;99.50;;;;;;5054066;28;20032;-70
2022/03/22 04:35:18;;;;;;;67.00;31.98;;;-0.30;99.90;;;;;;5053717;28;20033;-71
2022/03/22 04:37:47;;;;;;;65.85;32.40;;;-0.30;99.30;;;;;;5054342;28;20025;-70
2022/03/22 04:40:14;;;;;;;71.13;32.53;;;-0.20;99.90;;;;;;5053661;28;20029;-69
2022/03/22 04:42:41;;;;;;;65.30;32.28;;;-0.30;99.90;;;;;;5053959;28;20029;-73
2022/03/22 04:45:08;;;;;;;78.85;35.40;;;-0.30;99.90;;;;;;5053775;28;20051;-69
2022/03/22 04:47:35;;;;;;;79.95;38.35;;;-0.30;99.90;;;;;;5053546;28;20392;-70
2022/03/22 04:50:02;;;;;;;85.72;37.03;;;-0.30;99.90;;;;;;5054094;28;20051;-70
2022/03/22 04:57:56;;;;;;;83.25;35.88;;;-0.20;99.90;;;;;;5053590;28;20036;-71
2022/03/22 05:00:22;;;;;;;65.05;31.58;;;-0.20;99.90;;;;;;5053211;28;21359;-72
2022/03/22 05:02:48;;;;;;;69.03;31.27;;;-0.20;99.90;;;;;;5053198;28;20056;-71
2022/03/22 05:05:15;;;;;;;72.25;31.48;;;-0.20;99.90;;;;;;5053582;28;20386;-71
2022/03/22 05:07:42;;;;;;;62.67;28.63;;;-0.10;99.90;;;;;;5053517;28;20426;-74
2022/03/22 05:10:08;;;;;;;69.10;29.20;;;-0.10;99.90;;;;;;5053349;28;20028;-70
2022/03/22 05:12:37;;;;;;;63.17;27.13;;;-0.10;99.20;;;;;;5053283;28;20075;-70
2022/03/22 05:15:03;;;;;;;65.38;29.25;;;0.00;99.40;;;;;;5052996;28;20048;-72
2022/03/22 05:17:29;;;;;;;75.07;31.25;;;0.10;99.30;;;;;;5053599;28;20021;-72
2022/03/22 05:19:55;;;;;;;65.43;29.15;;;0.20;98.00;;;;;;5053390;28;20021;-70
2022/03/22 05:22:21;;;;;;;56.53;27.00;;;0.20;96.80;;;;;;5052308;28;20407;-71
2022/03/22 05:24:47;;;;;;;63.25;28.83;;;0.40;96.00;;;;;;5053259;28;20040;-71
2022/03/22 05:27:15;;;;;;;78.85;32.17;;;0.50;95.50;;;;;;5053383;28;20032;-71
2022/03/22 05:29:41;;;;;;;89.78;36.13;;;0.50;94.50;;;;;;5053574;28;20029;-72
2022/03/22 05:32:08;;;;;;;94.78;36.63;;;0.60;94.70;;;;;;5053503;28;20086;-70
2022/03/22 05:34:34;;;;;;;109.05;39.17;;;0.80;93.70;;;;;;5052828;28;20460;-71
2022/03/22 05:36:59;;;;;;;106.25;37.75;;;0.90;91.80;;;;;;5052302;28;20028;-74
2022/03/22 05:39:26;;;;;;;96.80;37.38;;;1.00;91.20;;;;;;5053457;28;20418;-72
2022/03/22 05:41:51;;;;;;;83.28;35.67;;;1.20;90.60;;;;;;5052435;28;20047;-71
2022/03/22 05:44:21;;;;;;;80.05;33.85;;;1.30;90.10;;;;;;5052633;28;20025;-71
2022/03/22 05:46:46;;;;;;;70.70;31.80;;;1.40;89.30;;;;;;5052620;28;20025;-73
2022/03/22 05:49:13;;;;;;;72.25;32.65;;;1.60;87.50;;;;;;5052615;28;20029;-70
2022/03/22 05:51:39;;;;;;;76.45;33.38;;;1.70;85.90;;;;;;5052591;28;20017;-71
2022/03/22 05:54:05;;;;;;;81.85;35.75;;;1.90;84.20;;;;;;5052379;28;20025;-73
2022/03/22 05:56:31;;;;;;;86.18;37.08;;;2.10;82.70;;;;;;5052514;28;20434;-71
2022/03/22 05:59:00;;;;;;;67.38;31.95;;;2.30;80.70;;;;;;5052651;28;20444;-73
2022/03/22 06:01:28;;;;;;;59.88;28.90;;;2.40;79.20;;;;;;5052787;28;20013;-73
2022/03/22 06:03:54;;;;;;;64.88;29.20;;;2.60;78.00;;;;;;5049522;28;20052;-72
2022/03/22 06:06:20;;;;;;;58.80;29.58;;;2.80;77.10;;;;;;5052516;28;20025;-73
2022/03/22 06:08:46;;;;;;;65.43;29.75;;;2.90;76.10;;;;;;5053252;28;20025;-73
2022/03/22 06:11:12;;;;;;;66.00;29.92;;;3.00;75.30;;;;;;5051662;28;20033;-72
2022/03/22 06:13:38;;;;;;;56.70;28.73;;;3.20;75.70;;;;;;5053053;28;20029;-72
2022/03/22 06:16:05;;;;;;;62.05;27.98;;;3.30;74.60;;;;;;5052846;28;20021;-73
2022/03/22 06:18:31;;;;;;;65.55;28.95;;;3.40;74.20;;;;;;5052826;28;20059;-72
2022/03/22 06:20:56;;;;;;;61.65;29.65;;;3.50;74.00;;;;;;5053001;28;20065;-72
2022/03/22 06:23:23;;;;;;;68.85;30.08;;;3.70;72.90;;;;;;5052885;28;20029;-73
2022/03/22 06:25:51;;;;;;;59.47;29.48;;;3.80;72.30;;;;;;5054274;28;20388;-74
2022/03/22 06:28:18;;;;;;;60.22;26.50;;;4.00;72.20;;;;;;5054378;28;20049;-75
2022/03/22 06:30:44;;;;;;;62.53;29.65;;;4.10;70.90;;;;;;5055072;28;20506;-73
2022/03/22 06:33:16;;;;;;;65.53;29.90;;;4.30;70.20;;;;;;5056295;28;20025;-73
2022/03/22 06:35:43;;;;;;;54.88;27.65;;;4.40;70.00;;;;;;5056458;28;20032;-74
2022/03/22 06:38:09;;;;;;;56.60;29.35;;;4.50;68.10;;;;;;5056202;28;20024;-72
2022/03/22 06:40:37;;;;;;;74.43;32.65;;;4.60;67.30;;;;;;5056258;28;20021;-74
2022/03/22 06:43:06;;;;;;;113.70;51.35;;;4.80;66.90;;;;;;5056280;28;20036;-74
2022/03/22 06:45:31;;;;;;;72.75;34.95;;;4.80;65.20;;;;;;5056019;28;20159;-73
2022/03/22 06:47:57;;;;;;;82.85;38.75;;;4.90;65.20;;;;;;5055845;28;20056;-74
2022/03/22 06:50:24;;;;;;;70.57;34.55;;;5.10;65.70;;;;;;5054888;28;20028;-74
2022/03/22 06:52:50;;;;;;;76.43;34.78;;;5.20;64.70;;;;;;5055924;28;20024;-74
2022/03/22 06:55:18;;;;;;;89.53;39.67;;;5.50;64.70;;;;;;5055922;28;20110;-74
2022/03/22 06:57:44;;;;;;;71.63;34.17;;;5.60;63.70;;;;;;5055772;28;20029;-75
2022/03/22 07:00:15;;;;;;;127.07;42.55;;;5.80;63.20;;;;;;5055492;28;20029;-75
2022/03/22 07:02:40;;;;;;;63.42;27.98;;;5.80;63.20;;;;;;5056214;28;20025;-74
2022/03/22 07:05:08;;;;;;;72.78;29.13;;;5.70;61.50;;;;;;5055424;28;20033;-73
2022/03/22 07:07:35;;;;;;;59.00;27.48;;;5.90;61.60;;;;;;5055826;28;20108;-73
2022/03/22 07:10:02;;;;;;;64.40;28.63;;;6.00;61.70;;;;;;5054234;28;20379;-74
2022/03/22 07:12:28;;;;;;;147.75;52.28;;;6.00;61.00;;;;;;5055478;28;20523;-75
2022/03/22 07:14:54;;;;;;;56.20;26.50;;;6.20;61.60;;;;;;5055250;28;20112;-74
2022/03/22 07:17:20;;;;;;;83.57;30.52;;;6.30;61.10;;;;;;5055325;28;20025;-74
2022/03/22 07:19:47;;;;;;;86.82;35.80;;;6.40;59.40;;;;;;5055642;28;20111;-75
2022/03/22 07:22:13;;;;;;;63.88;27.15;;;6.50;59.40;;;;;;5055219;28;20032;-75
2022/03/22 07:24:39;;;;;;;104.22;43.63;;;6.60;59.10;;;;;;5055538;28;20057;-73
2022/03/22 07:27:05;;;;;;;123.55;48.55;;;6.80;59.50;;;;;;5055242;28;20452;-73
2022/03/22 07:29:32;;;;;;;85.05;36.97;;;7.00;58.50;;;;;;5054314;28;20075;-73
2022/03/22 07:31:59;;;;;;;96.85;36.88;;;7.30;58.70;;;;;;5054803;28;20049;-75
2022/03/22 07:34:25;;;;;;;73.03;32.70;;;7.60;58.50;;;;;;5054504;28;20368;-73
2022/03/22 07:36:52;;;;;;;56.35;26.48;;;7.50;57.00;;;;;;5054313;28;20029;-74
2022/03/22 07:39:19;;;;;;;56.45;29.80;;;7.50;57.10;;;;;;5055513;28;20151;-74
2022/03/22 07:41:46;;;;;;;75.05;37.17;;;7.80;57.60;;;;;;5055245;28;20025;-76
2022/03/22 07:44:12;;;;;;;82.90;38.53;;;8.00;57.70;;;;;;5055070;28;20036;-74
2022/03/22 07:46:39;;;;;;;73.25;36.90;;;8.10;56.90;;;;;;5054876;28;20387;-74
2022/03/22 07:54:35;;;;;;;62.15;27.00;;;8.60;56.90;;;;;;5054618;28;20048;-74
2022/03/22 07:57:02;;;;;;;70.57;31.40;;;8.80;55.40;;;;;;5053487;28;20052;-73
2022/03/22 07:59:27;;;;;;;54.50;27.40;;;9.00;55.70;;;;;;5054363;28;20040;-74
2022/03/22 08:01:54;;;;;;;57.08;28.20;;;9.10;54.40;;;;;;5053880;28;20025;-76
2022/03/22 08:04:20;;;;;;;59.58;28.35;;;9.30;53.90;;;;;;5054395;28;20074;-73
2022/03/22 08:06:46;;;;;;;54.83;28.08;;;9.40;53.00;;;;;;5054487;28;20100;-78
2022/03/22 08:09:12;;;;;;;52.50;27.95;;;9.40;52.80;;;;;;5054456;28;20459;-75
2022/03/22 08:11:42;;;;;;;51.78;32.85;;;9.50;52.40;;;;;;5053353;28;20492;-78
2022/03/22 08:14:09;;;;;;;53.95;29.80;;;9.50;52.10;;;;;;5054289;28;20543;-74
2022/03/22 08:16:38;;;;;;;54.03;29.92;;;9.70;51.90;;;;;;5054285;28;20025;-72
2022/03/22 08:19:07;;;;;;;53.85;30.77;;;10.00;51.50;;;;;;5054344;28;20426;-74
2022/03/22 08:21:34;;;;;;;93.22;43.38;;;10.40;52.00;;;;;;5054288;28;20029;-75
2022/03/22 08:24:00;;;;;;;86.07;40.47;;;10.30;50.50;;;;;;5053889;28;20032;-74
2022/03/22 08:26:27;;;;;;;89.68;44.28;;;10.50;51.20;;;;;;5054249;28;20535;-74
2022/03/22 08:28:54;;;;;;;76.40;39.88;;;10.60;50.70;;;;;;5054066;28;20025;-75
2022/03/22 08:31:20;;;;;;;91.25;45.05;;;10.60;51.30;;;;;;5054168;28;20049;-74
2022/03/22 08:33:46;;;;;;;89.53;43.70;;;11.10;50.80;;;;;;5054019;28;20037;-74
2022/03/22 08:36:12;;;;;;;100.30;50.13;;;11.30;50.20;;;;;;5054105;28;20033;-73
2022/03/22 08:38:38;;;;;;;67.95;38.83;;;11.30;49.20;;;;;;5054444;28;20087;-76
2022/03/22 08:41:03;;;;;;;63.38;36.58;;;11.60;49.80;;;;;;5052727;28;20029;-75
2022/03/22 08:43:30;;;;;;;113.07;58.67;;;11.70;49.30;;;;;;5052644;28;20453;-77
2022/03/22 08:45:56;;;;;;;60.13;32.53;;;12.00;49.80;;;;;;5053680;28;20029;-75
2022/03/22 08:48:23;;;;;;;64.45;35.28;;;12.00;48.60;;;;;;5052646;28;20460;-75
2022/03/22 08:50:50;;;;;;;55.58;30.52;;;12.30;47.40;;;;;;5053851;28;20017;-74
2022/03/22 08:53:19;;;;;;;59.45;32.17;;;12.30;46.80;;;;;;5053676;28;20356;-74
2022/03/22 08:55:46;;;;;;;45.25;28.88;;;12.80;47.40;;;;;;5052596;28;20029;-73
2022/03/22 08:58:12;;;;;;;50.08;26.45;;;13.20;46.30;;;;;;5052419;28;20029;-75
2022/03/22 09:00:39;;;;;;;48.78;26.77;;;13.20;44.30;;;;;;5053662;28;20040;-75
2022/03/22 09:03:05;;;;;;;45.42;28.08;;;13.20;44.00;;;;;;5054090;28;20079;-75
2022/03/22 09:08:16;;;;;;;50.75;29.27;;;13.60;44.10;;;;;;5053455;28;20411;-74
2022/03/22 09:10:43;;;;;;;43.83;25.50;;;13.60;43.10;;;;;;5053768;28;20479;-74
2022/03/22 09:13:09;;;;;;;43.83;24.55;;;13.80;42.70;;;;;;5053594;28;20021;-74
2022/03/22 09:15:38;;;;;;;44.25;24.83;;;13.80;42.70;;;;;;5052293;28;20037;-74
2022/03/22 09:18:04;;;;;;;45.25;25.45;;;13.80;43.50;;;;;;5052832;28;20056;-73
2022/03/22 09:20:32;;;;;;;42.08;24.40;;;13.90;42.60;;;;;;5053250;28;20029;-73
2022/03/22 09:23:00;;;;;;;42.10;25.52;;;13.80;42.10;;;;;;5053328;28;20367;-73
2022/03/22 09:25:27;;;;;;;47.90;27.85;;;14.00;43.50;;;;;;5053218;28;20071;-72
2022/03/22 09:27:54;;;;;;;45.45;25.83;;;14.30;42.40;;;;;;5053280;28;20071;-73
2022/03/22 09:30:20;;;;;;;49.45;25.77;;;14.80;42.70;;;;;;5052991;28;20048;-73
2022/03/22 09:32:46;;;;;;;45.45;26.20;;;14.80;40.60;;;;;;5053100;28;20510;-72
2022/03/22 09:35:14;;;;;;;53.47;26.35;;;14.60;40.50;;;;;;5053200;28;20044;-73
2022/03/22 09:37:42;;;;;;;49.40;26.52;;;14.50;41.00;;;;;;5053471;28;20056;-73
2022/03/22 09:40:09;;;;;;;41.38;25.65;;;14.50;41.30;;;;;;5053024;28;20029;-73
2022/03/22 09:42:37;;;;;;;44.25;23.88;;;14.70;39.80;;;;;;5053197;28;20021;-73
2022/03/22 09:45:05;;;;;;;44.50;25.95;;;15.10;39.80;;;;;;5052967;28;20032;-72
2022/03/22 09:47:30;;;;;;;44.33;24.55;;;15.10;39.20;;;;;;5052585;28;20439;-73
2022/03/22 09:49:56;;;;;;;43.45;27.50;;;15.50;39.70;;;;;;5053067;28;20068;-72
2022/03/22 09:52:23;;;;;;;43.00;27.85;;;15.60;39.20;;;;;;5053180;28;20021;-73
2022/03/22 09:54:49;;;;;;;45.92;25.33;;;15.60;39.00;;;;;;5052765;28;20037;-74
2022/03/22 09:57:16;;;;;;;46.35;24.85;;;15.90;37.80;;;;;;5053174;28;20040;-73
2022/03/22 09:59:42;;;;;;;36.28;22.85;;;15.90;38.90;;;;;;5054029;28;20448;-72
2022/03/22 10:02:10;;;;;;;47.17;26.40;;;16.20;36.70;;;;;;5056945;28;20060;-72
2022/03/22 10:04:41;;;;;;;37.42;21.00;;;16.00;37.00;;;;;;5056888;28;20040;-76
2022/03/22 10:07:08;;;;;;;38.63;21.53;;;16.10;36.50;;;;;;5056824;28;20368;-75
2022/03/22 10:09:39;;;;;;;35.92;22.38;;;16.00;36.30;;;;;;5056680;28;20025;-75
2022/03/22 10:12:15;;;;;;;42.75;22.45;;;15.90;36.10;;;;;;5057116;28;20021;-75
2022/03/22 10:14:41;;;;;;;38.25;21.40;;;16.40;36.80;;;;;;5056752;28;20476;-75
2022/03/22 10:17:13;;;;;;;45.78;29.00;;;16.60;35.80;;;;;;5056438;28;20107;-77
2022/03/22 10:19:50;;;;;;;41.13;25.33;;;16.80;35.70;;;;;;5056936;28;20108;-73
2022/03/22 10:22:23;;;;;;;37.33;21.08;;;16.90;35.00;;;;;;5055414;28;20387;-76
2022/03/22 10:24:52;;;;;;;37.53;23.33;;;16.70;33.70;;;;;;5056363;28;20051;-77
2022/03/22 10:27:36;;;;;;;49.83;27.08;;;16.20;34.60;;;;;;5056294;28;20033;-75
2022/03/22 10:30:06;;;;;;;43.03;23.60;;;17.30;35.90;;;;;;5056229;28;20043;-74
2022/03/22 10:32:38;;;;;;;37.40;21.13;;;17.40;34.80;;;;;;5056604;28;20468;-74
2022/03/22 10:35:22;;;;;;;;;;;17.30;32.80;;;;;;5056339;28;20124;-75
2022/03/22 10:38:00;;;;;;;38.13;23.52;;;17.70;32.90;;;;;;5056728;28;19905;-75
2022/03/22 10:40:29;;;;;;;35.17;21.20;;;17.80;32.80;;;;;;5056482;28;20112;-75
2022/03/22 10:43:06;;;;;;;46.33;24.55;;;17.50;33.40;;;;;;5055887;28;20025;-75
2022/03/22 10:45:44;;;;;;;34.33;21.20;;;18.20;33.00;;;;;;5055103;28;20036;-73
2022/03/22 10:48:10;;;;;;;49.50;26.45;;;18.20;31.70;;;;;;5056232;28;20537;-73
2022/03/22 10:50:38;;;;;;;37.40;23.60;;;18.60;31.10;;;;;;5056002;28;20105;-72
2022/03/22 10:53:04;;;;;;;35.85;22.23;;;18.80;32.90;;;;;;5056039;28;20029;-75
2022/03/22 10:55:30;;;;;;;36.60;21.75;;;18.50;30.70;;;;;;5056038;28;20029;-73
2022/03/22 10:58:01;;;;;;;43.58;22.73;;;18.60;30.10;;;;;;5055702;28;20055;-74
2022/03/22 11:00:30;;;;;;;45.40;24.17;;;18.90;31.10;;;;;;5055652;28;20024;-74
2022/03/22 11:02:56;;;;;;;32.75;20.52;;;19.30;30.70;;;;;;5055982;28;20111;-76
2022/03/22 11:05:24;;;;;;;50.28;29.05;;;18.60;29.90;;;;;;5055933;28;20029;-73
2022/03/22 11:07:52;;;;;;;65.85;31.73;;;18.70;30.10;;;;;;5055734;28;20028;-74
2022/03/22 11:10:29;;;;;;;49.30;26.77;;;19.20;30.00;;;;;;5054489;28;20025;-75
2022/03/22 11:12:58;;;;;;;33.78;19.85;;;18.90;30.10;;;;;;5054866;28;20025;-74
2022/03/22 11:15:26;;;;;;;66.72;31.05;;;19.20;28.80;;;;;;5054351;28;20033;-75
2022/03/22 11:17:54;;;;;;;71.22;31.75;;;19.30;29.10;;;;;;5055425;28;20017;-75
2022/03/22 11:20:23;;;;;;;40.33;21.70;;;19.70;27.50;;;;;;5055520;28;20025;-75
2022/03/22 11:22:55;;;;;;;73.50;37.08;;;19.50;26.90;;;;;;5055541;28;20021;-76
2022/03/22 11:25:28;;;;;;;;;;;19.40;28.30;;;;;;5055627;28;20427;-74
2022/03/22 11:28:03;;;;;;;35.67;20.20;;;19.40;27.70;;;;;;5055475;28;19913;-74
2022/03/22 11:30:30;;;;;;;48.60;23.15;;;19.90;27.30;;;;;;5055643;28;20041;-76
2022/03/22 11:35:49;;;;;;;49.17;24.73;;;19.90;27.50;;;;;;5054888;28;20163;-75
2022/03/22 11:38:45;;;;;;;44.58;22.50;;;20.10;29.00;;;;;;5055116;28;20029;-74
2022/03/22 11:44:17;;;;;;;65.75;29.50;;;20.10;26.50;;;;;;5054974;28;20036;-75
2022/03/22 11:46:44;;;;;;;46.72;24.60;;;20.10;27.90;;;;;;5054685;28;20036;-75
2022/03/22 11:49:17;;;;;;;30.67;16.98;;;19.70;26.80;;;;;;5054916;28;20472;-75
2022/03/22 11:51:52;;;;;;;33.88;20.80;;;20.30;27.00;;;;;;5055079;28;20048;-74
2022/03/22 11:54:19;;;;;;;32.65;17.90;;;20.60;26.80;;;;;;5054964;28;20116;-74
2022/03/22 11:56:55;;;;;;;26.35;16.23;;;20.80;26.20;;;;;;5054822;28;20029;-74
2022/03/22 11:59:22;;;;;;;25.40;16.48;;;20.40;27.60;;;;;;5054457;28;20025;-73
2022/03/22 12:02:02;;;;;;;38.05;21.05;;;20.40;26.90;;;;;;5053507;28;20456;-71
2022/03/22 12:04:42;;;;;;;27.13;17.15;;;20.90;26.30;;;;;;5055205;28;20078;-74
2022/03/22 12:07:10;;;;;;;33.67;19.92;;;20.90;25.40;;;;;;5054499;28;20056;-76
2022/03/22 12:09:42;;;;;;;22.05;14.90;;;20.90;26.00;;;;;;5054583;28;20021;-72
2022/03/22 12:12:10;;;;;;;36.92;18.98;;;21.00;24.40;;;;;;5054676;28;20471;-73
2022/03/22 12:14:37;;;;;;;28.95;19.15;;;21.30;25.20;;;;;;5054453;28;20048;-74
2022/03/22 12:17:04;;;;;;;29.23;15.77;;;21.20;25.40;;;;;;5054399;28;20412;-75
2022/03/22 12:19:32;;;;;;;26.55;17.02;;;20.40;25.50;;;;;;5054852;28;20029;-71
2022/03/22 12:22:03;;;;;;;35.67;20.52;;;20.80;25.00;;;;;;5054301;28;20017;-74
2022/03/22 12:24:36;;;;;;;22.20;14.13;;;20.90;25.90;;;;;;5054507;28;20043;-74
2022/03/22 12:27:08;;;;;;;25.65;15.60;;;20.60;23.90;;;;;;5054252;28;20071;-75
2022/03/22 12:29:38;;;;;;;30.95;15.98;;;20.90;24.90;;;;;;5054545;28;20409;-73
2022/03/22 12:32:07;;;;;;;32.42;18.33;;;21.10;24.30;;;;;;5054302;28;20049;-74
2022/03/22 12:34:36;;;;;;;23.10;14.98;;;21.20;24.20;;;;;;5052762;28;20029;-74
2022/03/22 12:37:03;;;;;;;30.40;15.10;;;21.00;24.10;;;;;;5054110;28;20040;-76
2022/03/22 12:39:29;;;;;;;23.98;14.80;;;20.80;24.20;;;;;;5054404;28;20025;-75
2022/03/22 12:41:57;;;;;;;27.75;14.35;;;20.80;24.50;;;;;;5053464;28;20032;-75
2022/03/22 12:44:25;;;;;;;26.42;15.27;;;20.40;23.90;;;;;;5054489;28;20029;-74
2022/03/22 12:46:53;;;;;;;24.90;12.73;;;20.90;24.20;;;;;;5054353;28;20020;-75
2022/03/22 12:49:20;;;;;;;20.88;14.60;;;21.00;24.60;;;;;;5053822;28;20049;-72
2022/03/22 12:51:48;;;;;;;22.73;12.98;;;21.30;25.40;;;;;;5053880;28;20569;-74
2022/03/22 12:54:17;;;;;;;22.45;13.05;;;21.10;25.10;;;;;;5053871;28;20037;-72
2022/03/22 12:56:49;;;;;;;28.80;13.23;;;20.70;23.50;;;;;;5053426;28;20074;-73
2022/03/22 12:59:19;;;;;;;21.30;13.50;;;20.60;23.90;;;;;;5053743;28;20017;-76
2022/03/22 13:01:45;;;;;;;27.48;15.35;;;20.90;24.40;;;;;;5053841;28;20017;-74
2022/03/22 13:04:11;;;;;;;23.48;14.43;;;21.00;24.60;;;;;;5052378;28;20364;-73
2022/03/22 13:06:37;;;;;;;20.30;11.57;;;20.90;24.60;;;;;;5053691;28;20024;-75